Terminal Aerodrome Forecast
Issued by NWS Pueblo, CO

Home | Current Version | Previous Version | Text Only | Print | Product List | Glossary On
Versions: 1 2 3 4 5 6 7 8 9 10 11 12 13 14 15 16 17 18 19 20 21 22 23 24 25 26
000
FTUS45 KPUB 191121
TAFCOS
TAF
KCOS 191121Z 1912/2012 02006KT P6SM BKN250
     FM191800 14008KT P6SM FEW140 BKN200
     FM192200 22014KT P6SM BKN200
     FM200100 33008KT P6SM BKN200=

USA.gov is the U.S. government's official web portal to all federal, state and local government web resources and services.